Time;durP1;ratioP1;P1;durP2;ratioP2;P2;SDS_P1;SDS_P2;PMS_P1;PMS_P2;Temp;Humidity;BMP_temperature;BMP_pressure;BME280_temperature;BME280_humidity;BME280_pressure;Samples;Min_cycle;Max_cycle;Signal;HPM_P1;HPM_P2
2023/08/23 00:01:27;;;;;;;0.00;0.00;;;;;;;;;;6238621;28;20468;-91
2023/08/23 00:04:34;;;;;;;0.00;0.00;;;;;;;;;;6244282;28;20067;-91
2023/08/23 00:07:34;;;;;;;0.00;0.00;;;;;;;;;;6248486;28;20025;-90
2023/08/23 00:10:34;;;;;;;0.07;0.07;;;;;;;;;;6241411;28;20045;-90
2023/08/23 00:13:35;;;;;;;0.00;0.00;;;;;;;;;;6234499;28;20491;-90
2023/08/23 00:16:35;;;;;;;0.10;0.10;;;;;;;;;;6237138;28;20037;-91
2023/08/23 00:19:35;;;;;;;0.00;0.00;;;;;;;;;;6249103;28;20116;-90
2023/08/23 00:22:36;;;;;;;0.00;0.00;;;;;;;;;;6237689;28;20025;-90
2023/08/23 00:25:36;;;;;;;0.00;0.00;;;;;;;;;;6241334;28;20052;-90
2023/08/23 00:28:38;;;;;;;0.00;0.00;;;;;;;;;;6239559;28;20778;-90
2023/08/23 00:31:38;;;;;;;0.00;0.00;;;;;;;;;;6230261;28;20112;-90
2023/08/23 00:34:39;;;;;;;0.00;0.00;;;;;;;;;;6238750;28;20022;-90
2023/08/23 00:37:39;;;;;;;0.00;0.00;;;;;;;;;;6239880;28;20021;-90
2023/08/23 00:40:39;;;;;;;0.00;0.00;;;;;;;;;;6240533;28;20030;-89
2023/08/23 00:43:39;;;;;;;0.00;0.00;;;;;;;;;;6236097;28;20022;-90
2023/08/23 00:46:40;;;;;;;0.00;0.00;;;;;;;;;;6233308;28;20064;-90
2023/08/23 00:49:40;;;;;;;0.00;0.00;;;;;;;;;;6236264;28;20663;-90
2023/08/23 00:52:41;;;;;;;0.00;0.00;;;;;;;;;;6243664;28;20475;-90
2023/08/23 00:55:41;;;;;;;0.00;0.00;;;;;;;;;;6235480;28;20087;-91
2023/08/23 00:58:41;;;;;;;0.00;0.00;;;;;;;;;;6238412;28;20472;-91
2023/08/23 01:01:42;;;;;;;0.00;0.00;;;;;;;;;;6240230;28;20479;-90
2023/08/23 01:04:43;;;;;;;0.00;0.00;;;;;;;;;;6244727;28;20408;-91
2023/08/23 01:07:43;;;;;;;;;;;;;;;;;;6247470;28;20058;-96
2023/08/23 01:10:51;;;;;;;0.00;0.00;;;;;;;;;;6260549;28;19912;-96
2023/08/23 01:14:02;;;;;;;0.00;0.00;;;;;;;;;;6239106;28;20115;-96
2023/08/23 01:17:02;;;;;;;;;;;;;;;;;;6257321;28;20089;-96
2023/08/23 01:20:03;;;;;;;0.00;0.00;;;;;;;;;;6252985;28;19912;-96
2023/08/23 01:23:13;;;;;;;0.00;0.00;;;;;;;;;;6263698;28;20049;-96
2023/08/23 01:26:14;;;;;;;0.00;0.00;;;;;;;;;;6258557;28;20057;-96
2023/08/23 01:29:16;;;;;;;0.00;0.00;;;;;;;;;;6261467;28;20622;-96
2023/08/23 01:32:29;;;;;;;0.00;0.00;;;;;;;;;;6249121;28;20137;-96
2023/08/23 01:35:36;;;;;;;0.00;0.00;;;;;;;;;;6264135;28;20116;-96
2023/08/23 01:38:38;;;;;;;0.00;0.00;;;;;;;;;;6277824;28;20029;-96
2023/08/23 01:41:39;;;;;;;0.00;0.00;;;;;;;;;;6255990;28;20025;-96
2023/08/23 01:44:43;;;;;;;0.00;0.00;;;;;;;;;;6249213;28;20391;-96
2023/08/23 01:47:43;;;;;;;0.00;0.00;;;;;;;;;;6262414;28;20036;-96
2023/08/23 01:50:45;;;;;;;0.00;0.00;;;;;;;;;;6282882;28;20018;-96
2023/08/23 01:53:45;;;;;;;0.00;0.00;;;;;;;;;;6277009;28;20082;-96
2023/08/23 01:56:46;;;;;;;0.00;0.00;;;;;;;;;;6269866;28;20017;-96
2023/08/23 01:59:47;;;;;;;0.00;0.00;;;;;;;;;;6267468;28;20488;-96
2023/08/23 02:02:51;;;;;;;0.00;0.00;;;;;;;;;;6274179;28;20025;-96
2023/08/23 02:05:54;;;;;;;0.00;0.00;;;;;;;;;;6260653;28;20415;-96
2023/08/23 02:08:54;;;;;;;0.00;0.00;;;;;;;;;;6261545;28;20033;-96
2023/08/23 02:11:55;;;;;;;0.00;0.00;;;;;;;;;;6274842;28;20017;-96
2023/08/23 02:14:55;;;;;;;0.00;0.00;;;;;;;;;;6264547;28;20097;-96
2023/08/23 02:17:56;;;;;;;0.00;0.00;;;;;;;;;;6237876;28;20530;-89
2023/08/23 02:20:57;;;;;;;0.00;0.00;;;;;;;;;;6250945;28;20029;-90
2023/08/23 02:23:57;;;;;;;0.00;0.00;;;;;;;;;;6252770;28;20095;-88
2023/08/23 02:26:57;;;;;;;0.00;0.00;;;;;;;;;;6233123;28;20495;-88
2023/08/23 02:29:57;;;;;;;0.00;0.00;;;;;;;;;;6257509;28;20021;-89
2023/08/23 02:32:59;;;;;;;0.00;0.00;;;;;;;;;;6237523;28;20017;-89
2023/08/23 02:35:59;;;;;;;0.00;0.00;;;;;;;;;;6234777;28;20062;-88
2023/08/23 02:39:00;;;;;;;0.00;0.00;;;;;;;;;;6250237;28;20013;-89
2023/08/23 02:42:00;;;;;;;0.00;0.00;;;;;;;;;;6222448;28;20487;-89
2023/08/23 02:45:00;;;;;;;0.10;0.10;;;;;;;;;;6248837;28;20010;-88
2023/08/23 02:48:00;;;;;;;0.00;0.00;;;;;;;;;;6245195;28;20062;-88
2023/08/23 02:51:01;;;;;;;0.00;0.00;;;;;;;;;;6246722;28;20025;-89
2023/08/23 02:54:01;;;;;;;0.00;0.00;;;;;;;;;;6242810;28;20176;-89
2023/08/23 02:57:02;;;;;;;0.00;0.00;;;;;;;;;;6239862;28;20021;-89
2023/08/23 03:00:02;;;;;;;0.00;0.00;;;;;;;;;;6237042;28;20044;-89
2023/08/23 03:03:02;;;;;;;0.00;0.00;;;;;;;;;;6248417;28;20060;-89
2023/08/23 03:06:03;;;;;;;0.10;0.10;;;;;;;;;;6247459;28;20017;-90
2023/08/23 03:09:03;;;;;;;0.00;0.00;;;;;;;;;;6248012;28;20403;-89
2023/08/23 03:12:03;;;;;;;0.00;0.00;;;;;;;;;;6246119;28;20023;-89
2023/08/23 03:15:04;;;;;;;0.00;0.00;;;;;;;;;;6247780;28;20021;-89
2023/08/23 03:18:04;;;;;;;0.00;0.00;;;;;;;;;;6238626;28;20093;-89
2023/08/23 03:21:04;;;;;;;0.00;0.00;;;;;;;;;;6239481;28;20021;-89
2023/08/23 03:24:05;;;;;;;0.00;0.00;;;;;;;;;;6263962;28;20044;-88
2023/08/23 03:27:05;;;;;;;0.00;0.00;;;;;;;;;;6272284;28;20022;-96
2023/08/23 03:30:06;;;;;;;0.00;0.00;;;;;;;;;;6272198;28;20025;-96
2023/08/23 03:33:07;;;;;;;0.00;0.00;;;;;;;;;;6261645;28;20391;-96
2023/08/23 03:36:07;;;;;;;0.00;0.00;;;;;;;;;;6251761;28;20498;-96
2023/08/23 03:39:08;;;;;;;0.00;0.00;;;;;;;;;;6246566;28;20087;-96
2023/08/23 03:42:09;;;;;;;0.00;0.00;;;;;;;;;;6246481;28;20109;-96
2023/08/23 03:45:09;;;;;;;;;;;;;;;;;;6252597;28;20044;-96
2023/08/23 03:48:10;;;;;;;0.00;0.00;;;;;;;;;;6243135;28;19905;-94
2023/08/23 03:51:11;;;;;;;0.00;0.00;;;;;;;;;;6239731;28;20034;-96
2023/08/23 03:54:12;;;;;;;0.00;0.00;;;;;;;;;;6241516;28;20092;-96
2023/08/23 03:57:12;;;;;;;0.00;0.00;;;;;;;;;;6249666;28;20010;-96
2023/08/23 04:00:13;;;;;;;0.00;0.00;;;;;;;;;;6245415;28;20037;-96
2023/08/23 04:03:13;;;;;;;0.00;0.00;;;;;;;;;;6235793;28;20435;-96
2023/08/23 04:06:13;;;;;;;0.00;0.00;;;;;;;;;;6237210;28;20025;-96
2023/08/23 04:09:14;;;;;;;0.00;0.00;;;;;;;;;;6252340;28;20017;-96
2023/08/23 04:12:15;;;;;;;0.00;0.00;;;;;;;;;;6246985;28;20379;-96
2023/08/23 04:15:15;;;;;;;0.00;0.00;;;;;;;;;;6249653;28;20088;-96
2023/08/23 04:18:16;;;;;;;0.00;0.00;;;;;;;;;;6241519;28;20063;-96
2023/08/23 04:21:17;;;;;;;0.00;0.00;;;;;;;;;;6236756;28;20021;-96
2023/08/23 04:24:17;;;;;;;;;;;;;;;;;;6226212;28;20038;-96
2023/08/23 04:27:18;;;;;;;0.00;0.00;;;;;;;;;;6248239;28;19909;-96
2023/08/23 04:30:18;;;;;;;0.00;0.00;;;;;;;;;;6224425;28;20033;-96
2023/08/23 04:33:19;;;;;;;0.00;0.00;;;;;;;;;;6243981;28;20566;-96
2023/08/23 04:36:19;;;;;;;0.00;0.00;;;;;;;;;;6251169;28;20017;-96
2023/08/23 04:39:21;;;;;;;0.00;0.00;;;;;;;;;;6254215;28;20026;-90
2023/08/23 04:42:21;;;;;;;0.00;0.00;;;;;;;;;;6241037;28;20476;-90
2023/08/23 04:45:21;;;;;;;0.00;0.00;;;;;;;;;;6233509;28;20381;-91
2023/08/23 04:48:23;;;;;;;0.00;0.00;;;;;;;;;;6228703;28;20055;-90
2023/08/23 04:51:23;;;;;;;0.00;0.00;;;;;;;;;;6237740;28;20017;-90
2023/08/23 04:54:24;;;;;;;0.00;0.00;;;;;;;;;;6238634;28;20530;-91
2023/08/23 04:57:24;;;;;;;0.00;0.00;;;;;;;;;;6238490;28;20371;-90
2023/08/23 05:00:24;;;;;;;0.00;0.00;;;;;;;;;;6215050;28;20083;-90
2023/08/23 05:03:26;;;;;;;0.00;0.00;;;;;;;;;;6226732;28;20020;-90
2023/08/23 05:06:26;;;;;;;0.00;0.00;;;;;;;;;;6235167;28;20020;-89
2023/08/23 05:09:28;;;;;;;0.00;0.00;;;;;;;;;;6245046;28;20017;-90
2023/08/23 05:12:29;;;;;;;0.00;0.00;;;;;;;;;;6238050;28;20022;-90
2023/08/23 05:15:29;;;;;;;0.00;0.00;;;;;;;;;;6236719;28;20101;-90
2023/08/23 05:18:30;;;;;;;0.00;0.00;;;;;;;;;;6244410;28;20021;-90
2023/08/23 05:21:30;;;;;;;0.00;0.00;;;;;;;;;;6240792;28;20483;-89
2023/08/23 05:24:30;;;;;;;0.00;0.00;;;;;;;;;;6241292;28;20122;-91
2023/08/23 05:27:31;;;;;;;0.00;0.00;;;;;;;;;;6233715;28;20415;-89
2023/08/23 05:30:31;;;;;;;0.00;0.00;;;;;;;;;;6243196;28;20619;-89
2023/08/23 05:33:32;;;;;;;0.00;0.00;;;;;;;;;;6244694;28;20021;-88
2023/08/23 05:36:33;;;;;;;0.00;0.00;;;;;;;;;;6244592;28;20116;-90
2023/08/23 05:39:34;;;;;;;0.00;0.00;;;;;;;;;;6230881;28;20403;-90
2023/08/23 05:42:35;;;;;;;0.00;0.00;;;;;;;;;;6235666;28;20075;-89
2023/08/23 05:45:35;;;;;;;0.00;0.00;;;;;;;;;;6230575;28;20476;-88
2023/08/23 05:48:35;;;;;;;0.00;0.00;;;;;;;;;;6244874;28;20372;-88
2023/08/23 05:51:35;;;;;;;0.00;0.00;;;;;;;;;;6245640;28;20364;-89
2023/08/23 05:54:36;;;;;;;0.00;0.00;;;;;;;;;;6245483;28;20602;-89
2023/08/23 05:57:36;;;;;;;0.00;0.00;;;;;;;;;;6242890;28;20049;-89
2023/08/23 06:00:39;;;;;;;0.00;0.00;;;;;;;;;;6244254;28;20013;-89
2023/08/23 06:03:39;;;;;;;0.00;0.00;;;;;;;;;;6250601;28;20017;-90
2023/08/23 06:06:39;;;;;;;0.00;0.00;;;;;;;;;;6250847;28;20064;-89
2023/08/23 06:09:40;;;;;;;0.00;0.00;;;;;;;;;;6250739;28;20021;-90
2023/08/23 06:12:40;;;;;;;0.00;0.00;;;;;;;;;;6246940;28;20018;-90
2023/08/23 06:15:40;;;;;;;0.00;0.00;;;;;;;;;;6247869;28;20479;-89
2023/08/23 06:18:40;;;;;;;0.00;0.00;;;;;;;;;;6250017;28;20021;-89
2023/08/23 06:21:41;;;;;;;0.00;0.00;;;;;;;;;;6250193;28;20589;-91
2023/08/23 06:24:42;;;;;;;0.00;0.00;;;;;;;;;;6242898;28;20116;-91
2023/08/23 06:27:44;;;;;;;0.00;0.00;;;;;;;;;;6249970;28;20033;-92
2023/08/23 06:30:44;;;;;;;0.00;0.00;;;;;;;;;;6234822;28;20029;-91
2023/08/23 06:33:44;;;;;;;0.00;0.00;;;;;;;;;;6232184;28;20438;-91
2023/08/23 06:36:45;;;;;;;0.00;0.00;;;;;;;;;;6247192;28;20017;-91
2023/08/23 06:39:46;;;;;;;0.00;0.00;;;;;;;;;;6236797;28;20025;-91
2023/08/23 06:42:47;;;;;;;0.00;0.00;;;;;;;;;;6233704;28;20013;-92
2023/08/23 06:45:47;;;;;;;0.00;0.00;;;;;;;;;;6250031;28;20013;-90
2023/08/23 06:48:47;;;;;;;0.00;0.00;;;;;;;;;;6234381;28;20464;-90
2023/08/23 06:51:48;;;;;;;0.03;0.03;;;;;;;;;;6236418;28;20026;-90
2023/08/23 06:54:48;;;;;;;0.00;0.00;;;;;;;;;;6234883;28;20024;-88
2023/08/23 06:57:49;;;;;;;0.00;0.00;;;;;;;;;;6267967;28;20020;-93
2023/08/23 07:00:49;;;;;;;0.00;0.00;;;;;;;;;;6275593;28;20016;-93
2023/08/23 07:03:49;;;;;;;0.00;0.00;;;;;;;;;;6272228;28;20031;-94
2023/08/23 07:06:50;;;;;;;0.00;0.00;;;;;;;;;;6270796;28;20009;-94
2023/08/23 07:09:50;;;;;;;0.00;0.00;;;;;;;;;;6265669;28;20012;-93
2023/08/23 07:12:51;;;;;;;0.00;0.00;;;;;;;;;;6255081;28;20032;-93
2023/08/23 07:15:51;;;;;;;0.00;0.00;;;;;;;;;;6258460;28;19992;-94
2023/08/23 07:18:51;;;;;;;0.00;0.00;;;;;;;;;;6276356;28;20089;-92
2023/08/23 07:21:51;;;;;;;0.00;0.00;;;;;;;;;;6279662;28;20029;-93
2023/08/23 07:24:52;;;;;;;0.00;0.00;;;;;;;;;;6282484;28;20041;-92
2023/08/23 07:27:52;;;;;;;0.00;0.00;;;;;;;;;;6263836;28;20036;-93
2023/08/23 07:30:57;;;;;;;0.00;0.00;;;;;;;;;;6263365;28;20032;-93
2023/08/23 07:33:57;;;;;;;0.00;0.00;;;;;;;;;;6241708;28;20093;-93
2023/08/23 07:37:00;;;;;;;0.00;0.00;;;;;;;;;;6254237;28;20050;-95
2023/08/23 07:40:00;;;;;;;0.00;0.00;;;;;;;;;;6235085;28;20567;-94
2023/08/23 07:43:01;;;;;;;0.00;0.00;;;;;;;;;;6237106;28;20013;-93
2023/08/23 07:46:07;;;;;;;0.00;0.00;;;;;;;;;;6233599;28;20022;-95
2023/08/23 07:49:07;;;;;;;0.00;0.00;;;;;;;;;;6235621;28;20468;-93
2023/08/23 07:52:07;;;;;;;0.00;0.00;;;;;;;;;;6241437;28;20021;-94
2023/08/23 07:55:08;;;;;;;0.00;0.00;;;;;;;;;;6232815;28;20038;-94
2023/08/23 07:58:09;;;;;;;0.00;0.00;;;;;;;;;;6242197;28;20034;-93
2023/08/23 08:01:10;;;;;;;0.00;0.00;;;;;;;;;;6230747;28;20116;-93
2023/08/23 08:04:10;;;;;;;0.00;0.00;;;;;;;;;;6232285;28;20014;-93
2023/08/23 08:07:10;;;;;;;0.00;0.00;;;;;;;;;;6242407;28;20052;-92
2023/08/23 08:10:11;;;;;;;0.00;0.00;;;;;;;;;;6233066;28;20112;-90
2023/08/23 08:13:11;;;;;;;0.00;0.00;;;;;;;;;;6233422;28;20163;-91
2023/08/23 08:16:12;;;;;;;0.00;0.00;;;;;;;;;;6230327;28;20045;-91
2023/08/23 08:19:12;;;;;;;;;;;;;;;;;;6232071;28;20029;-92
2023/08/23 08:22:13;;;;;;;0.00;0.00;;;;;;;;;;6238299;28;20290;-92
2023/08/23 08:25:13;;;;;;;0.00;0.00;;;;;;;;;;6236531;28;20042;-92
2023/08/23 08:28:14;;;;;;;0.00;0.00;;;;;;;;;;6232011;28;20038;-92
2023/08/23 08:31:14;;;;;;;0.00;0.00;;;;;;;;;;6222853;28;20017;-92
2023/08/23 08:34:14;;;;;;;0.00;0.00;;;;;;;;;;6231592;28;20273;-92
2023/08/23 08:37:15;;;;;;;0.00;0.00;;;;;;;;;;6236872;28;20020;-91
2023/08/23 08:40:16;;;;;;;0.00;0.00;;;;;;;;;;6230044;28;20299;-91
2023/08/23 08:43:18;;;;;;;0.00;0.00;;;;;;;;;;6239241;28;20026;-92
2023/08/23 08:46:18;;;;;;;;;;;;;;;;;;6233102;28;20460;-93
2023/08/23 08:49:18;;;;;;;0.00;0.00;;;;;;;;;;6247849;28;19971;-93
2023/08/23 08:52:19;;;;;;;;;;;;;;;;;;6243832;28;20076;-92
2023/08/23 08:55:23;;;;;;;0.00;0.00;;;;;;;;;;6241643;28;19905;-93
2023/08/23 08:58:24;;;;;;;0.00;0.00;;;;;;;;;;6238632;28;20029;-92
2023/08/23 09:01:24;;;;;;;;;;;;;;;;;;6227520;28;20080;-93
2023/08/23 09:04:26;;;;;;;0.00;0.00;;;;;;;;;;6229482;28;19913;-93
2023/08/23 09:07:26;;;;;;;0.00;0.00;;;;;;;;;;6235861;28;20029;-93
2023/08/23 09:10:26;;;;;;;;;;;;;;;;;;6232044;28;20048;-93
2023/08/23 09:13:27;;;;;;;0.00;0.00;;;;;;;;;;6230847;28;19912;-92
2023/08/23 09:16:27;;;;;;;;;;;;;;;;;;6221756;28;20044;-93
2023/08/23 09:19:28;;;;;;;0.00;0.00;;;;;;;;;;6232883;28;20016;-92
2023/08/23 09:22:28;;;;;;;;;;;;;;;;;;6238590;28;20163;-92
2023/08/23 09:25:28;;;;;;;0.00;0.00;;;;;;;;;;6239943;28;19979;-92
2023/08/23 09:28:29;;;;;;;0.00;0.00;;;;;;;;;;6240157;28;20022;-92
2023/08/23 09:31:29;;;;;;;;;;;;;;;;;;6215259;28;20021;-91
2023/08/23 09:34:29;;;;;;;0.00;0.00;;;;;;;;;;6239801;28;20003;-92
2023/08/23 09:37:32;;;;;;;0.00;0.00;;;;;;;;;;6236707;28;20060;-92
2023/08/23 09:40:32;;;;;;;0.00;0.00;;;;;;;;;;6247374;28;20284;-91
2023/08/23 09:43:32;;;;;;;;;;;;;;;;;;6238147;28;20122;-92
2023/08/23 09:46:34;;;;;;;0.00;0.00;;;;;;;;;;6234171;28;19913;-92
2023/08/23 09:49:35;;;;;;;0.00;0.00;;;;;;;;;;6226448;28;20037;-91
2023/08/23 09:52:37;;;;;;;0.00;0.00;;;;;;;;;;6230831;28;20041;-91
2023/08/23 09:55:37;;;;;;;0.00;0.00;;;;;;;;;;6233193;28;20035;-92
2023/08/23 09:58:38;;;;;;;0.00;0.00;;;;;;;;;;6237506;28;20025;-92
2023/08/23 10:01:39;;;;;;;0.00;0.00;;;;;;;;;;6240913;28;20072;-92
2023/08/23 10:04:40;;;;;;;0.00;0.00;;;;;;;;;;6228175;28;20037;-92
2023/08/23 10:07:43;;;;;;;0.00;0.00;;;;;;;;;;6239953;28;20272;-92
2023/08/23 10:10:44;;;;;;;0.00;0.00;;;;;;;;;;6236851;28;20028;-92
2023/08/23 10:13:44;;;;;;;0.00;0.00;;;;;;;;;;6243907;28;20108;-92
2023/08/23 10:16:45;;;;;;;0.00;0.00;;;;;;;;;;6224201;28;20017;-92
2023/08/23 10:19:49;;;;;;;0.00;0.00;;;;;;;;;;6226801;28;20068;-92
2023/08/23 10:22:55;;;;;;;0.00;0.00;;;;;;;;;;6245868;28;20018;-92
2023/08/23 10:25:55;;;;;;;0.00;0.00;;;;;;;;;;6234838;28;20038;-92
2023/08/23 10:29:00;;;;;;;0.00;0.00;;;;;;;;;;6235924;28;20106;-90
2023/08/23 10:32:10;;;;;;;0.00;0.00;;;;;;;;;;6231515;28;20468;-91
2023/08/23 10:35:23;;;;;;;0.00;0.00;;;;;;;;;;6219362;28;20018;-90
2023/08/23 10:38:25;;;;;;;0.00;0.00;;;;;;;;;;6226770;28;20037;-92
2023/08/23 10:41:25;;;;;;;0.00;0.00;;;;;;;;;;6232101;28;20029;-90
2023/08/23 10:44:26;;;;;;;0.00;0.00;;;;;;;;;;6227004;28;20095;-93
2023/08/23 10:47:26;;;;;;;0.00;0.00;;;;;;;;;;6236682;28;20025;-93
2023/08/23 10:50:28;;;;;;;0.00;0.00;;;;;;;;;;6242018;28;20036;-93
2023/08/23 10:53:29;;;;;;;0.00;0.00;;;;;;;;;;6234429;28;20033;-93
2023/08/23 10:56:30;;;;;;;0.00;0.00;;;;;;;;;;6237301;28;20032;-92
2023/08/23 10:59:30;;;;;;;0.00;0.00;;;;;;;;;;6236925;28;20064;-93
2023/08/23 11:02:31;;;;;;;0.00;0.00;;;;;;;;;;6232861;28;20037;-92
2023/08/23 11:05:39;;;;;;;0.00;0.00;;;;;;;;;;6246103;28;20022;-94
2023/08/23 11:08:42;;;;;;;0.00;0.00;;;;;;;;;;6243618;28;20039;-94
2023/08/23 11:12:03;;;;;;;0.00;0.00;;;;;;;;;;6295075;23;20063;-91
2023/08/23 11:15:04;;;;;;;0.00;0.00;;;;;;;;;;6290898;28;20606;-91
2023/08/23 11:18:05;;;;;;;0.00;0.00;;;;;;;;;;6255168;28;20029;-91
2023/08/23 11:21:05;;;;;;;0.00;0.00;;;;;;;;;;6279936;28;20115;-92
2023/08/23 11:24:06;;;;;;;0.00;0.00;;;;;;;;;;6289313;28;20479;-92
2023/08/23 11:27:13;;;;;;;0.00;0.00;;;;;;;;;;6271440;28;20031;-91
2023/08/23 11:30:13;;;;;;;0.00;0.00;;;;;;;;;;6272648;28;20062;-91
2023/08/23 11:33:13;;;;;;;0.00;0.00;;;;;;;;;;6291470;28;20380;-91
2023/08/23 11:36:17;;;;;;;0.00;0.00;;;;;;;;;;6289979;28;20473;-91
2023/08/23 11:39:17;;;;;;;0.00;0.00;;;;;;;;;;6290656;28;20082;-91
2023/08/23 11:42:18;;;;;;;0.00;0.00;;;;;;;;;;6290510;28;20471;-91
2023/08/23 11:45:18;;;;;;;0.00;0.00;;;;;;;;;;6272540;28;20071;-92
2023/08/23 11:48:18;;;;;;;0.00;0.00;;;;;;;;;;6273369;28;20040;-85
2023/08/23 11:51:20;;;;;;;0.00;0.00;;;;;;;;;;6264718;28;20021;-84
2023/08/23 11:54:22;;;;;;;0.00;0.00;;;;;;;;;;6249650;28;20028;-84
2023/08/23 11:57:22;;;;;;;0.00;0.00;;;;;;;;;;6268389;28;20047;-83
2023/08/23 12:00:23;;;;;;;0.00;0.00;;;;;;;;;;6266650;28;20104;-84
2023/08/23 12:03:23;;;;;;;0.00;0.00;;;;;;;;;;6250118;28;20345;-84
2023/08/23 12:06:23;;;;;;;0.00;0.00;;;;;;;;;;6267875;28;20124;-84
2023/08/23 12:09:25;;;;;;;0.00;0.00;;;;;;;;;;6265567;28;20275;-84
2023/08/23 12:12:25;;;;;;;0.00;0.00;;;;;;;;;;6247912;28;20040;-84
2023/08/23 12:15:26;;;;;;;0.00;0.00;;;;;;;;;;6250384;28;20399;-84
2023/08/23 12:18:26;;;;;;;0.00;0.00;;;;;;;;;;6265676;28;20271;-84
2023/08/23 12:21:26;;;;;;;0.00;0.00;;;;;;;;;;6263669;28;20031;-84
2023/08/23 12:24:28;;;;;;;0.00;0.00;;;;;;;;;;6233394;28;20025;-84
2023/08/23 12:27:28;;;;;;;0.00;0.00;;;;;;;;;;6249536;28;20278;-83
2023/08/23 12:30:28;;;;;;;0.00;0.00;;;;;;;;;;6249099;28;20029;-84
2023/08/23 12:33:29;;;;;;;0.00;0.00;;;;;;;;;;6264277;28;20291;-84
2023/08/23 12:36:29;;;;;;;0.00;0.00;;;;;;;;;;6241382;28;20427;-84
2023/08/23 12:39:29;;;;;;;0.00;0.00;;;;;;;;;;6266874;28;20291;-84
2023/08/23 12:42:29;;;;;;;0.00;0.00;;;;;;;;;;6267248;28;20043;-84
2023/08/23 12:45:30;;;;;;;0.00;0.00;;;;;;;;;;6256849;28;20324;-84
2023/08/23 12:48:31;;;;;;;0.00;0.00;;;;;;;;;;6264378;28;20475;-85
2023/08/23 12:51:31;;;;;;;0.00;0.00;;;;;;;;;;6265408;28;20028;-84
2023/08/23 12:54:35;;;;;;;0.00;0.00;;;;;;;;;;6265665;28;20028;-84
2023/08/23 12:57:35;;;;;;;0.00;0.00;;;;;;;;;;6248086;28;20117;-91
2023/08/23 13:00:35;;;;;;;0.00;0.00;;;;;;;;;;6265880;28;20017;-91
2023/08/23 13:03:35;;;;;;;0.00;0.00;;;;;;;;;;6262659;28;20021;-91
2023/08/23 13:06:36;;;;;;;0.00;0.00;;;;;;;;;;6248001;28;20025;-91
2023/08/23 13:09:36;;;;;;;0.00;0.00;;;;;;;;;;6247427;28;20045;-91
2023/08/23 13:12:36;;;;;;;0.00;0.00;;;;;;;;;;6247651;28;20398;-91
2023/08/23 13:15:36;;;;;;;0.00;0.00;;;;;;;;;;6263822;28;20446;-91
2023/08/23 13:18:37;;;;;;;0.00;0.00;;;;;;;;;;6263222;28;20021;-84
2023/08/23 13:21:38;;;;;;;0.00;0.00;;;;;;;;;;6263276;28;20025;-84
2023/08/23 13:24:39;;;;;;;0.00;0.00;;;;;;;;;;6265939;28;20021;-84
2023/08/23 13:27:39;;;;;;;0.00;0.00;;;;;;;;;;6262845;28;20103;-83
2023/08/23 13:30:40;;;;;;;0.00;0.00;;;;;;;;;;6266861;28;20048;-84
2023/08/23 13:33:40;;;;;;;0.00;0.00;;;;;;;;;;6266992;28;20021;-84
2023/08/23 13:36:44;;;;;;;0.00;0.00;;;;;;;;;;6268066;28;20020;-84
2023/08/23 13:39:45;;;;;;;0.00;0.00;;;;;;;;;;6264531;28;20033;-84
2023/08/23 13:42:46;;;;;;;0.00;0.00;;;;;;;;;;6265610;28;20395;-84
2023/08/23 13:45:46;;;;;;;0.00;0.00;;;;;;;;;;6250328;28;20028;-84
2023/08/23 13:48:46;;;;;;;0.00;0.00;;;;;;;;;;6247629;28;20275;-84
2023/08/23 13:51:46;;;;;;;0.00;0.00;;;;;;;;;;6264303;28;20124;-85
2023/08/23 13:54:47;;;;;;;0.00;0.00;;;;;;;;;;6264709;28;20475;-84
2023/08/23 13:57:47;;;;;;;0.00;0.00;;;;;;;;;;6247919;28;20021;-84
2023/08/23 14:00:47;;;;;;;0.00;0.00;;;;;;;;;;6267775;28;20100;-84
2023/08/23 14:03:47;;;;;;;0.00;0.00;;;;;;;;;;6265192;28;20032;-83
2023/08/23 14:06:47;;;;;;;0.00;0.00;;;;;;;;;;6247121;28;20021;-90
2023/08/23 14:09:48;;;;;;;0.00;0.00;;;;;;;;;;6265552;28;20617;-90
2023/08/23 14:12:48;;;;;;;0.00;0.00;;;;;;;;;;6250170;28;20021;-91
2023/08/23 14:15:49;;;;;;;0.00;0.00;;;;;;;;;;6247793;28;20083;-91
2023/08/23 14:18:49;;;;;;;0.00;0.00;;;;;;;;;;6265934;28;20056;-91
2023/08/23 14:21:49;;;;;;;0.00;0.00;;;;;;;;;;6242795;28;20098;-91
2023/08/23 14:24:50;;;;;;;0.00;0.00;;;;;;;;;;6251694;28;21075;-91
2023/08/23 14:27:51;;;;;;;0.00;0.00;;;;;;;;;;6251525;28;20108;-84
2023/08/23 14:30:54;;;;;;;0.00;0.00;;;;;;;;;;6270250;28;20021;-84
2023/08/23 14:33:55;;;;;;;0.00;0.00;;;;;;;;;;6270023;28;20027;-84
2023/08/23 14:36:55;;;;;;;0.00;0.00;;;;;;;;;;6250187;28;20107;-84
2023/08/23 14:39:55;;;;;;;0.00;0.00;;;;;;;;;;6268381;28;20107;-84
2023/08/23 14:42:56;;;;;;;0.00;0.00;;;;;;;;;;6251563;28;20274;-84
2023/08/23 14:45:56;;;;;;;0.00;0.00;;;;;;;;;;6247442;28;20025;-84
2023/08/23 14:48:57;;;;;;;0.00;0.00;;;;;;;;;;6270097;28;20020;-84
2023/08/23 14:51:58;;;;;;;0.00;0.00;;;;;;;;;;6251842;28;20029;-85
2023/08/23 14:55:05;;;;;;;0.00;0.00;;;;;;;;;;6264878;28;20044;-84
2023/08/23 14:58:05;;;;;;;0.00;0.00;;;;;;;;;;6268713;28;20029;-84
2023/08/23 15:01:05;;;;;;;0.00;0.00;;;;;;;;;;6268960;28;20388;-84
2023/08/23 15:04:05;;;;;;;0.00;0.00;;;;;;;;;;6248759;28;20040;-84
2023/08/23 15:07:06;;;;;;;0.00;0.00;;;;;;;;;;6264873;28;20009;-85
2023/08/23 15:10:06;;;;;;;0.00;0.00;;;;;;;;;;6246463;28;20046;-84
2023/08/23 15:13:06;;;;;;;0.00;0.00;;;;;;;;;;6267240;28;20028;-84
2023/08/23 15:16:07;;;;;;;0.00;0.00;;;;;;;;;;6268453;28;20009;-84
2023/08/23 15:19:07;;;;;;;0.00;0.00;;;;;;;;;;6266602;28;20323;-84
2023/08/23 15:22:09;;;;;;;0.00;0.00;;;;;;;;;;6250346;28;20024;-83
2023/08/23 15:25:09;;;;;;;0.00;0.00;;;;;;;;;;6249522;28;20033;-84
2023/08/23 15:28:10;;;;;;;0.00;0.00;;;;;;;;;;6252716;28;20025;-84
2023/08/23 15:31:10;;;;;;;0.00;0.00;;;;;;;;;;6252477;28;20567;-83
2023/08/23 15:34:11;;;;;;;0.00;0.00;;;;;;;;;;6269015;28;20044;-83
2023/08/23 15:37:11;;;;;;;0.00;0.00;;;;;;;;;;6275094;28;20029;-88
2023/08/23 15:40:11;;;;;;;0.00;0.00;;;;;;;;;;6300814;28;20087;-89
2023/08/23 15:43:11;;;;;;;0.00;0.00;;;;;;;;;;6299937;28;20047;-90
2023/08/23 15:46:12;;;;;;;0.00;0.00;;;;;;;;;;6265891;28;20009;-89
2023/08/23 15:49:12;;;;;;;0.00;0.00;;;;;;;;;;6289837;28;20048;-88
2023/08/23 15:52:12;;;;;;;0.00;0.00;;;;;;;;;;6301860;28;20029;-87
2023/08/23 15:55:13;;;;;;;0.00;0.00;;;;;;;;;;6297909;28;20017;-90
2023/08/23 15:58:13;;;;;;;0.00;0.00;;;;;;;;;;6290693;28;20029;-90
2023/08/23 16:01:13;;;;;;;0.00;0.00;;;;;;;;;;6274900;28;20025;-90
2023/08/23 16:04:14;;;;;;;0.00;0.00;;;;;;;;;;6282935;28;20499;-90
2023/08/23 16:07:15;;;;;;;0.00;0.00;;;;;;;;;;6244702;28;20047;-90
2023/08/23 16:10:15;;;;;;;0.00;0.00;;;;;;;;;;6278062;28;20049;-90
2023/08/23 16:13:16;;;;;;;0.00;0.00;;;;;;;;;;6264488;28;20017;-91
2023/08/23 16:16:17;;;;;;;0.00;0.00;;;;;;;;;;6272902;28;20533;-89
2023/08/23 16:19:17;;;;;;;0.00;0.00;;;;;;;;;;6250870;28;20495;-91
2023/08/23 16:22:19;;;;;;;0.00;0.00;;;;;;;;;;6270427;28;20025;-90
2023/08/23 16:25:19;;;;;;;0.00;0.00;;;;;;;;;;6267656;28;20016;-91
2023/08/23 16:28:19;;;;;;;0.00;0.00;;;;;;;;;;6245113;28;20052;-90
2023/08/23 16:31:19;;;;;;;0.00;0.00;;;;;;;;;;6269531;28;20056;-91
2023/08/23 16:34:21;;;;;;;0.00;0.00;;;;;;;;;;6245964;28;20059;-90
2023/08/23 16:37:21;;;;;;;0.00;0.00;;;;;;;;;;6250206;28;20275;-89
2023/08/23 16:40:22;;;;;;;0.00;0.00;;;;;;;;;;6272430;28;20391;-89
2023/08/23 16:43:22;;;;;;;0.00;0.00;;;;;;;;;;6269113;28;20047;-89
2023/08/23 16:46:23;;;;;;;0.00;0.00;;;;;;;;;;6247546;28;20019;-90
2023/08/23 16:49:24;;;;;;;0.00;0.00;;;;;;;;;;6250161;28;20311;-84
2023/08/23 16:52:24;;;;;;;0.00;0.00;;;;;;;;;;6271673;28;20031;-84
2023/08/23 16:55:24;;;;;;;0.00;0.00;;;;;;;;;;6247793;28;20028;-83
2023/08/23 16:58:25;;;;;;;0.00;0.00;;;;;;;;;;6248888;28;20829;-84
2023/08/23 17:01:25;;;;;;;0.00;0.00;;;;;;;;;;6265844;28;20067;-84
2023/08/23 17:04:25;;;;;;;0.00;0.00;;;;;;;;;;6247710;28;20116;-84
2023/08/23 17:07:26;;;;;;;0.00;0.00;;;;;;;;;;6246387;28;20104;-86
2023/08/23 17:10:26;;;;;;;0.00;0.00;;;;;;;;;;6249146;28;20053;-87
2023/08/23 17:13:26;;;;;;;0.00;0.00;;;;;;;;;;6228942;28;20309;-86
2023/08/23 17:16:27;;;;;;;0.00;0.00;;;;;;;;;;6261250;28;20025;-88
2023/08/23 17:19:27;;;;;;;;;;;;;;;;;;6264050;28;20028;-88
2023/08/23 17:22:29;;;;;;;0.00;0.00;;;;;;;;;;6270850;28;20069;-88
2023/08/23 17:25:29;;;;;;;0.00;0.00;;;;;;;;;;6262090;28;20786;-88
2023/08/23 17:28:29;;;;;;;;;;;;;;;;;;6261993;28;20022;-88
2023/08/23 17:31:31;;;;;;;0.00;0.00;;;;;;;;;;6256607;28;19916;-88
2023/08/23 17:34:31;;;;;;;0.00;0.00;;;;;;;;;;6246382;28;20029;-88
2023/08/23 17:37:31;;;;;;;0.00;0.00;;;;;;;;;;6267194;28;20079;-88
2023/08/23 17:40:33;;;;;;;0.00;0.00;;;;;;;;;;6249158;28;20052;-88
2023/08/23 17:43:34;;;;;;;0.00;0.00;;;;;;;;;;6263905;28;20153;-88
2023/08/23 17:46:37;;;;;;;0.00;0.00;;;;;;;;;;6239215;28;20030;-88
2023/08/23 17:49:38;;;;;;;0.00;0.00;;;;;;;;;;6253779;28;21001;-88
2023/08/23 17:52:39;;;;;;;0.00;0.00;;;;;;;;;;6260506;28;20460;-87
2023/08/23 17:55:40;;;;;;;0.00;0.00;;;;;;;;;;6248835;28;20071;-87
2023/08/23 17:58:40;;;;;;;0.00;0.00;;;;;;;;;;6253170;28;20025;-88
2023/08/23 18:01:42;;;;;;;0.00;0.00;;;;;;;;;;6248622;28;20078;-87
2023/08/23 18:04:42;;;;;;;0.00;0.00;;;;;;;;;;6267020;28;20025;-87
2023/08/23 18:07:42;;;;;;;0.00;0.00;;;;;;;;;;6270771;28;20017;-87
2023/08/23 18:10:43;;;;;;;0.00;0.00;;;;;;;;;;6270223;28;20573;-88